createdAt,value
2022-10-29T00:01:21.254Z,4.47
2022-10-29T00:03:48.393Z,4.53
2022-10-29T00:06:15.329Z,4.80
2022-10-29T00:08:42.428Z,5.60
2022-10-29T00:11:19.400Z,5.70
2022-10-29T00:13:47.560Z,4.72
2022-10-29T00:16:20.011Z,5.80
2022-10-29T00:18:47.042Z,7.60
2022-10-29T00:21:17.356Z,5.18
2022-10-29T00:23:44.296Z,5.35
2022-10-29T00:26:11.186Z,4.47
2022-10-29T00:28:37.857Z,5.72
2022-10-29T00:31:06.270Z,4.90
2022-10-29T00:33:33.322Z,5.85
2022-10-29T00:36:24.524Z,4.80
2022-10-29T00:38:51.541Z,4.85
2022-10-29T00:41:21.667Z,4.82
2022-10-29T00:44:13.578Z,3.97
2022-10-29T00:46:43.838Z,5.22
2022-10-29T00:49:11.259Z,4.07
2022-10-29T00:51:38.804Z,3.80
2022-10-29T00:54:08.482Z,4.10
2022-10-29T00:56:48.939Z,4.65
2022-10-29T00:59:17.106Z,3.88
2022-10-29T01:01:46.409Z,4.38
2022-10-29T01:04:13.604Z,4.30
2022-10-29T01:06:46.796Z,4.82
2022-10-29T01:09:13.367Z,6.18
2022-10-29T01:11:57.560Z,4.13
2022-10-29T01:14:42.275Z,4.05
2022-10-29T01:17:33.175Z,5.40
2022-10-29T01:20:35.285Z,4.68
2022-10-29T01:23:23.698Z,3.80
2022-10-29T01:26:22.516Z,3.30
2022-10-29T01:29:08.692Z,3.60
2022-10-29T01:31:59.971Z,4.40
2022-10-29T01:34:38.444Z,4.90
2022-10-29T01:37:21.006Z,4.32
2022-10-29T01:40:01.356Z,3.60
2022-10-29T01:42:38.719Z,3.30
2022-10-29T01:45:13.307Z,3.85
2022-10-29T01:47:47.370Z,3.78
2022-10-29T01:50:19.292Z,5.03
2022-10-29T01:52:48.501Z,5.18
2022-10-29T01:55:29.875Z,3.45
2022-10-29T01:57:56.758Z,3.80
2022-10-29T02:00:24.365Z,4.00
2022-10-29T02:03:22.152Z,5.03
2022-10-29T02:06:15.031Z,4.32
2022-10-29T02:09:12.542Z,5.32
2022-10-29T02:11:57.142Z,5.47
2022-10-29T02:14:32.947Z,3.45
2022-10-29T02:17:01.485Z,4.03
2022-10-29T02:19:32.505Z,4.40
2022-10-29T02:21:59.177Z,4.35
2022-10-29T02:24:25.827Z,3.75
2022-10-29T02:26:52.565Z,4.10
2022-10-29T02:29:19.321Z,2.95
2022-10-29T02:31:45.878Z,4.07
2022-10-29T02:34:12.596Z,3.42
2022-10-29T02:36:39.351Z,3.97
2022-10-29T02:39:06.068Z,5.93
2022-10-29T02:41:32.653Z,3.72
2022-10-29T02:43:59.201Z,4.38
2022-10-29T02:46:25.765Z,4.28
2022-10-29T02:48:52.313Z,2.50
2022-10-29T02:51:18.928Z,4.18
2022-10-29T02:53:45.515Z,3.65
2022-10-29T02:56:12.083Z,3.80
2022-10-29T02:58:38.899Z,3.85
2022-10-29T03:01:06.829Z,4.00
2022-10-29T03:03:33.423Z,3.88
2022-10-29T03:05:59.982Z,3.13
2022-10-29T03:08:26.532Z,3.65
2022-10-29T03:10:55.025Z,3.03
2022-10-29T03:13:21.629Z,3.50
2022-10-29T03:15:48.185Z,4.03
2022-10-29T03:18:14.744Z,3.90
2022-10-29T03:20:42.741Z,3.65
2022-10-29T03:23:09.286Z,5.32
2022-10-29T03:25:35.842Z,4.55
2022-10-29T03:28:02.424Z,6.35
2022-10-29T03:30:28.992Z,4.03
2022-10-29T03:32:55.999Z,3.25
2022-10-29T03:35:22.859Z,4.55
2022-10-29T03:37:50.918Z,3.95
2022-10-29T03:40:18.052Z,3.92
2022-10-29T03:42:45.250Z,3.75
2022-10-29T03:45:12.482Z,3.70
2022-10-29T03:47:39.188Z,4.10
2022-10-29T03:50:06.272Z,3.72
2022-10-29T03:52:32.977Z,3.88
2022-10-29T03:54:59.547Z,3.28
2022-10-29T03:57:26.129Z,3.13
2022-10-29T03:59:52.932Z,3.80
2022-10-29T04:02:19.900Z,4.22
2022-10-29T04:04:46.794Z,2.65
2022-10-29T04:07:13.396Z,2.65
2022-10-29T04:09:40.083Z,4.13
2022-10-29T04:12:07.445Z,3.50
2022-10-29T04:14:34.979Z,3.95
2022-10-29T04:17:01.632Z,2.95
2022-10-29T04:19:28.364Z,2.92
2022-10-29T04:30:15.386Z,3.55
2022-10-29T04:32:42.032Z,3.97
2022-10-29T04:35:08.838Z,2.90
2022-10-29T04:37:35.435Z,3.38
2022-10-29T04:40:02.107Z,3.63
2022-10-29T04:42:28.730Z,3.83
2022-10-29T04:44:55.307Z,3.78
2022-10-29T04:47:21.883Z,3.00
2022-10-29T04:49:48.470Z,3.03
2022-10-29T04:52:15.032Z,3.67
2022-10-29T04:54:41.615Z,3.13
2022-10-29T04:57:08.184Z,3.75
2022-10-29T04:59:34.823Z,2.55
2022-10-29T05:02:01.400Z,3.35
2022-10-29T05:04:29.425Z,4.32
2022-10-29T05:06:56.029Z,3.33
2022-10-29T05:09:22.640Z,4.07
2022-10-29T05:11:49.325Z,2.67
2022-10-29T05:14:16.107Z,4.13
2022-10-29T05:16:42.730Z,3.03
2022-10-29T05:19:09.382Z,3.63
2022-10-29T05:21:36.034Z,3.50
2022-10-29T05:24:02.685Z,3.55
2022-10-29T05:26:32.329Z,3.00
2022-10-29T05:28:58.954Z,4.57
2022-10-29T05:31:25.648Z,4.07
2022-10-29T05:33:55.480Z,2.90
2022-10-29T05:36:22.659Z,4.05
2022-10-29T05:38:49.231Z,3.50
2022-10-29T05:41:15.878Z,4.47
2022-10-29T05:43:42.450Z,2.42
2022-10-29T05:46:09.082Z,3.53
2022-10-29T05:48:35.824Z,3.90
2022-10-29T05:51:02.576Z,3.10
2022-10-29T05:53:29.163Z,3.40
2022-10-29T05:55:55.760Z,3.70
2022-10-29T05:58:22.336Z,3.70
2022-10-29T06:00:48.964Z,2.60
2022-10-29T06:03:20.510Z,3.03
2022-10-29T06:05:48.588Z,2.92
2022-10-29T06:08:15.342Z,3.50
2022-10-29T06:10:41.920Z,3.42
2022-10-29T06:13:13.873Z,2.75
2022-10-29T06:15:40.522Z,3.33
2022-10-29T06:18:07.563Z,3.75
2022-10-29T06:20:34.234Z,2.38
2022-10-29T06:23:00.910Z,3.05
2022-10-29T06:25:28.051Z,3.50
2022-10-29T06:28:01.351Z,3.92
2022-10-29T06:30:29.138Z,4.75
2022-10-29T06:32:56.037Z,3.80
2022-10-29T06:35:23.290Z,3.70
2022-10-29T06:37:49.995Z,4.35
2022-10-29T06:40:16.888Z,3.75
2022-10-29T06:42:43.617Z,2.92
2022-10-29T06:45:10.699Z,3.85
2022-10-29T06:47:44.919Z,3.83
2022-10-29T06:50:13.389Z,2.85
2022-10-29T06:52:39.974Z,3.45
2022-10-29T06:55:07.792Z,2.60
2022-10-29T06:57:34.407Z,3.50
2022-10-29T07:00:05.551Z,3.63
2022-10-29T07:02:35.093Z,2.45
2022-10-29T07:05:01.688Z,2.92
2022-10-29T07:07:28.979Z,2.95
2022-10-29T07:09:55.581Z,3.25
2022-10-29T07:12:22.162Z,2.90
2022-10-29T07:14:48.740Z,3.45
2022-10-29T07:17:15.341Z,2.63
2022-10-29T07:19:41.911Z,3.35
2022-10-29T07:22:08.496Z,3.10
2022-10-29T07:24:35.075Z,2.42
2022-10-29T07:27:01.999Z,3.08
2022-10-29T07:29:28.659Z,3.90
2022-10-29T07:31:55.264Z,2.97
2022-10-29T07:34:21.837Z,2.55
2022-10-29T07:36:48.423Z,3.25
2022-10-29T07:39:15.007Z,2.67
2022-10-29T07:41:41.601Z,2.90
2022-10-29T07:44:08.646Z,3.05
2022-10-29T07:46:35.265Z,3.63
2022-10-29T07:49:01.931Z,2.58
2022-10-29T07:51:28.523Z,2.30
2022-10-29T07:53:55.240Z,2.58
2022-10-29T07:56:21.826Z,2.78
2022-10-29T07:58:48.453Z,3.47
2022-10-29T08:01:15.084Z,2.10
2022-10-29T08:03:41.816Z,2.47
2022-10-29T08:06:08.506Z,3.85
2022-10-29T08:08:35.134Z,2.42
2022-10-29T08:11:03.146Z,2.45
2022-10-29T08:13:30.030Z,3.83
2022-10-29T08:15:57.045Z,2.35
2022-10-29T08:18:23.610Z,2.28
2022-10-29T08:20:50.270Z,4.00
2022-10-29T08:23:16.917Z,2.38
2022-10-29T08:25:45.062Z,2.78
2022-10-29T08:28:14.376Z,3.00
2022-10-29T08:30:43.892Z,3.60
2022-10-29T08:33:11.002Z,2.60
2022-10-29T08:35:37.602Z,3.33
2022-10-29T08:38:04.167Z,3.33
2022-10-29T08:41:00.141Z,3.00
2022-10-29T08:43:39.367Z,2.70
2022-10-29T08:46:24.485Z,2.28
2022-10-29T08:49:02.560Z,2.30
2022-10-29T08:51:34.266Z,2.63
2022-10-29T08:54:29.337Z,1.98
2022-10-29T08:56:53.570Z,2.55
2022-10-29T08:59:25.304Z,2.25
2022-10-29T09:01:53.660Z,2.50
2022-10-29T09:04:23.240Z,3.30
2022-10-29T09:06:55.918Z,2.60
2022-10-29T09:09:35.042Z,3.67
2022-10-29T09:12:29.108Z,2.00
2022-10-29T09:15:10.134Z,2.00
2022-10-29T09:17:50.763Z,2.42
2022-10-29T09:20:30.506Z,3.17
2022-10-29T09:23:21.328Z,3.38
2022-10-29T09:25:56.010Z,2.80
2022-10-29T09:28:37.635Z,2.53
2022-10-29T09:31:10.062Z,2.42
2022-10-29T09:33:38.693Z,2.28
2022-10-29T09:36:16.211Z,2.30
2022-10-29T09:39:00.492Z,3.03
2022-10-29T09:41:34.201Z,3.20
2022-10-29T09:44:23.590Z,1.92
2022-10-29T09:47:04.518Z,3.28
2022-10-29T09:49:51.130Z,2.03
2022-10-29T09:52:30.559Z,2.97
2022-10-29T09:55:00.958Z,2.65
2022-10-29T09:57:30.117Z,2.30
2022-10-29T10:00:06.929Z,2.30
2022-10-29T10:02:45.209Z,3.08
2022-10-29T10:05:19.989Z,3.72
2022-10-29T10:08:04.248Z,1.92
2022-10-29T10:10:32.438Z,2.25
2022-10-29T10:13:04.251Z,3.70
2022-10-29T10:15:36.079Z,2.65
2022-10-29T10:18:16.156Z,2.03
2022-10-29T10:20:45.510Z,2.72
2022-10-29T10:23:22.458Z,2.17
2022-10-29T10:25:50.139Z,2.80
2022-10-29T10:28:20.972Z,2.65
2022-10-29T10:31:14.535Z,2.70
2022-10-29T10:33:52.938Z,2.38
2022-10-29T10:36:25.001Z,1.75
2022-10-29T10:41:29.821Z,2.75
2022-10-29T10:44:01.066Z,3.80
2022-10-29T10:46:35.246Z,2.55
2022-10-29T10:49:06.134Z,2.47
2022-10-29T10:51:36.116Z,2.13
2022-10-29T10:54:23.183Z,2.22
2022-10-29T10:57:01.763Z,3.45
2022-10-29T10:59:46.390Z,2.22
2022-10-29T11:02:24.713Z,1.70
2022-10-29T11:04:59.859Z,2.75
2022-10-29T11:07:33.985Z,1.90
2022-10-29T11:10:05.395Z,2.35
2022-10-29T11:12:41.808Z,2.40
2022-10-29T11:15:16.476Z,2.17
2022-10-29T11:17:53.876Z,3.17
2022-10-29T11:20:26.006Z,2.30
2022-10-29T11:23:14.211Z,1.92
2022-10-29T11:25:47.395Z,2.53
2022-10-29T11:28:29.366Z,1.95
2022-10-29T11:31:17.401Z,2.15
2022-10-29T11:34:04.834Z,1.95
2022-10-29T11:36:36.374Z,2.58
2022-10-29T11:39:16.325Z,1.52
2022-10-29T11:42:00.219Z,2.08
2022-10-29T11:44:28.511Z,2.28
2022-10-29T11:47:04.190Z,3.00
2022-10-29T11:49:42.862Z,2.42
2022-10-29T11:52:17.063Z,2.38
2022-10-29T11:54:44.384Z,2.10
2022-10-29T11:57:35.788Z,2.40
2022-10-29T12:00:05.255Z,2.53
2022-10-29T12:02:56.888Z,2.85
2022-10-29T12:05:38.740Z,1.77
2022-10-29T12:08:11.539Z,2.05
2022-10-29T12:11:32.649Z,2.22
2022-10-29T12:14:23.586Z,2.00
2022-10-29T12:16:59.315Z,1.90
2022-10-29T12:19:38.344Z,1.48
2022-10-29T12:22:23.060Z,1.98
2022-10-29T12:25:04.414Z,1.70
2022-10-29T12:27:41.520Z,1.90
2022-10-29T12:30:11.058Z,1.70
2022-10-29T12:32:58.941Z,2.00
2022-10-29T12:35:48.929Z,1.95
2022-10-29T12:38:35.077Z,1.50
2022-10-29T12:41:15.067Z,1.85
2022-10-29T12:43:42.938Z,2.35
2022-10-29T12:46:20.035Z,1.58
2022-10-29T12:49:04.765Z,1.73
2022-10-29T12:52:05.223Z,1.90
2022-10-29T12:54:40.958Z,2.22
2022-10-29T12:57:13.641Z,2.08
2022-10-29T12:59:41.842Z,1.92
2022-10-29T13:02:21.386Z,2.85
2022-10-29T13:05:06.426Z,1.58
2022-10-29T13:07:38.705Z,1.90
2022-10-29T13:10:23.572Z,2.20
2022-10-29T13:12:52.903Z,1.67
2022-10-29T13:15:22.511Z,2.53
2022-10-29T13:17:51.737Z,1.50
2022-10-29T13:20:27.760Z,2.13
2022-10-29T13:22:59.345Z,1.60
2022-10-29T13:25:37.985Z,1.95
2022-10-29T13:28:07.684Z,1.75
2022-10-29T13:30:34.988Z,1.60
2022-10-29T13:33:21.559Z,2.50
2022-10-29T13:35:55.147Z,1.70
2022-10-29T13:38:58.059Z,1.85
2022-10-29T13:41:42.128Z,1.98
2022-10-29T13:44:20.488Z,2.10
2022-10-29T13:47:19.712Z,1.73
2022-10-29T13:49:48.798Z,1.77
2022-10-29T13:52:20.413Z,1.92
2022-10-29T13:54:49.702Z,1.70
2022-10-29T13:57:21.131Z,1.88
2022-10-29T13:59:54.882Z,1.88
2022-10-29T14:02:44.794Z,1.73
2022-10-29T14:05:12.613Z,1.65
2022-10-29T14:08:06.330Z,1.58
2022-10-29T14:10:36.619Z,1.98
2022-10-29T14:13:52.399Z,2.05
2022-10-29T14:16:24.210Z,2.35
2022-10-29T14:18:51.446Z,1.77
2022-10-29T14:21:28.698Z,1.73
2022-10-29T14:24:00.607Z,1.83
2022-10-29T14:26:29.054Z,2.50
2022-10-29T14:28:55.739Z,1.50
2022-10-29T14:31:24.665Z,1.95
2022-10-29T14:34:01.380Z,1.70
2022-10-29T14:36:33.826Z,1.50
2022-10-29T14:39:32.625Z,2.03
2022-10-29T14:42:04.979Z,2.17
2022-10-29T14:44:32.759Z,2.00
2022-10-29T14:47:21.924Z,1.50
2022-10-29T14:49:50.778Z,1.95
2022-10-29T14:52:39.846Z,1.90
2022-10-29T14:55:09.081Z,1.67
2022-10-29T14:57:41.656Z,1.52
2022-10-29T15:00:21.517Z,1.38
2022-10-29T15:02:49.330Z,1.48
2022-10-29T15:05:34.840Z,1.50
2022-10-29T15:08:10.721Z,1.73
2022-10-29T15:10:54.651Z,1.50
2022-10-29T15:13:29.578Z,1.58
2022-10-29T15:16:04.997Z,1.40
2022-10-29T15:18:33.830Z,1.60
2022-10-29T15:21:00.724Z,1.60
2022-10-29T15:23:41.136Z,1.58
2022-10-29T15:26:14.049Z,1.50
2022-10-29T15:28:43.966Z,1.50
2022-10-29T15:31:33.610Z,1.80
2022-10-29T15:34:14.977Z,1.80
2022-10-29T15:37:33.812Z,1.85
2022-10-29T15:40:05.309Z,1.60
2022-10-29T15:42:35.220Z,1.42
2022-10-29T15:45:08.039Z,1.30
2022-10-29T15:47:43.642Z,1.30
2022-10-29T15:50:13.410Z,2.28
2022-10-29T15:52:43.351Z,1.48
2022-10-29T15:55:26.257Z,1.42
2022-10-29T15:57:56.395Z,1.63
2022-10-29T16:00:23.730Z,1.50
2022-10-29T16:02:51.165Z,1.67
2022-10-29T16:05:18.442Z,2.00
2022-10-29T16:07:46.910Z,1.30
2022-10-29T16:10:19.355Z,1.42
2022-10-29T16:12:46.884Z,1.77
2022-10-29T16:15:15.799Z,1.60
2022-10-29T16:17:42.454Z,2.10
2022-10-29T16:20:14.251Z,2.55
2022-10-29T16:22:41.414Z,1.55
2022-10-29T16:25:18.645Z,1.95
2022-10-29T16:27:45.195Z,1.63
2022-10-29T16:30:12.145Z,1.38
2022-10-29T16:32:40.474Z,1.23
2022-10-29T16:35:15.051Z,1.80
2022-10-29T16:37:41.693Z,1.50
2022-10-29T16:40:08.988Z,2.13
2022-10-29T16:42:36.745Z,1.50
2022-10-29T16:45:04.798Z,1.48
2022-10-29T16:47:31.399Z,1.77
2022-10-29T16:49:58.166Z,1.50
2022-10-29T16:52:28.838Z,1.40
2022-10-29T16:54:56.567Z,1.52
2022-10-29T16:57:23.807Z,1.48
2022-10-29T16:59:50.536Z,1.60
2022-10-29T17:02:17.094Z,1.60
2022-10-29T17:04:43.732Z,1.90
2022-10-29T17:07:10.387Z,1.77
2022-10-29T17:09:37.082Z,1.92
2022-10-29T17:12:03.899Z,1.50
2022-10-29T17:14:30.709Z,1.83
2022-10-29T17:16:57.480Z,1.70
2022-10-29T17:19:24.342Z,1.20
2022-10-29T17:21:51.100Z,1.85
2022-10-29T17:24:17.670Z,1.98
2022-10-29T17:26:44.276Z,2.72
2022-10-29T17:29:11.039Z,1.75
2022-10-29T17:31:37.825Z,1.70
2022-10-29T17:34:04.525Z,1.60
2022-10-29T17:36:31.086Z,1.73
2022-10-29T17:38:57.783Z,1.63
2022-10-29T17:41:24.362Z,1.40
2022-10-29T17:43:50.935Z,1.52
2022-10-29T17:46:18.021Z,1.95
2022-10-29T17:48:44.640Z,1.50
2022-10-29T17:51:11.266Z,1.52
2022-10-29T17:53:39.066Z,1.42
2022-10-29T17:56:06.009Z,1.98
2022-10-29T17:58:32.666Z,1.85
2022-10-29T18:01:07.293Z,1.60
2022-10-29T18:03:33.912Z,1.80
2022-10-29T18:06:01.825Z,1.40
2022-10-29T18:08:29.541Z,2.50
2022-10-29T18:11:04.269Z,2.65
2022-10-29T18:13:39.556Z,1.40
2022-10-29T18:16:06.828Z,2.22
2022-10-29T18:18:48.045Z,1.63
2022-10-29T18:21:23.595Z,1.73
2022-10-29T18:23:50.576Z,1.38
2022-10-29T18:26:34.748Z,1.75
2022-10-29T18:29:05.070Z,2.25
2022-10-29T18:31:32.106Z,1.75
2022-10-29T18:34:00.093Z,1.98
2022-10-29T18:36:26.823Z,1.77
2022-10-29T18:38:55.523Z,2.67
2022-10-29T18:41:23.539Z,1.30
2022-10-29T18:43:50.726Z,1.52
2022-10-29T18:46:18.453Z,1.55
2022-10-29T18:48:47.154Z,2.08
2022-10-29T18:51:24.187Z,1.50
2022-10-29T18:53:51.719Z,1.83
2022-10-29T18:56:20.235Z,1.65
2022-10-29T18:58:47.306Z,1.73
2022-10-29T19:01:19.663Z,1.73
2022-10-29T19:03:52.499Z,1.70
2022-10-29T19:06:20.275Z,1.73
2022-10-29T19:08:47.527Z,1.48
2022-10-29T19:11:16.894Z,1.88
2022-10-29T19:13:44.190Z,1.55
2022-10-29T19:16:12.989Z,1.40
2022-10-29T19:18:40.987Z,1.65
2022-10-29T19:21:13.714Z,2.33
2022-10-29T19:23:40.990Z,2.10
2022-10-29T19:26:12.891Z,2.10
2022-10-29T19:28:40.455Z,1.70
2022-10-29T19:31:11.050Z,1.63
2022-10-29T19:33:37.987Z,2.58
2022-10-29T19:36:06.879Z,1.60
2022-10-29T19:38:33.902Z,2.70
2022-10-29T19:41:00.670Z,2.28
2022-10-29T19:43:31.043Z,1.75
2022-10-29T19:45:58.452Z,1.60
2022-10-29T19:48:25.277Z,1.63
2022-10-29T19:50:56.223Z,1.40
2022-10-29T19:53:23.829Z,3.17
2022-10-29T19:55:51.442Z,2.25
2022-10-29T19:58:18.620Z,1.70
2022-10-29T20:00:45.503Z,1.65
2022-10-29T20:03:12.957Z,3.97
2022-10-29T20:05:40.570Z,1.50
2022-10-29T20:08:11.365Z,1.58
2022-10-29T20:10:41.356Z,2.05
2022-10-29T20:13:07.938Z,1.90
2022-10-29T20:15:34.545Z,1.30
2022-10-29T20:18:01.194Z,1.63
2022-10-29T20:20:27.881Z,1.30
2022-10-29T20:22:54.914Z,2.63
2022-10-29T20:25:23.829Z,2.72
2022-10-29T20:27:50.879Z,1.63
2022-10-29T20:30:17.690Z,2.58
2022-10-29T20:32:44.275Z,1.55
2022-10-29T20:35:10.862Z,1.40
2022-10-29T20:37:37.464Z,1.50
2022-10-29T20:40:04.692Z,2.03
2022-10-29T20:42:31.283Z,1.20
2022-10-29T20:44:57.846Z,1.70
2022-10-29T20:47:24.479Z,2.08
2022-10-29T20:49:51.090Z,2.47
2022-10-29T20:52:17.672Z,2.03
2022-10-29T20:54:44.241Z,2.05
2022-10-29T20:57:10.820Z,1.63
2022-10-29T20:59:37.454Z,1.75
2022-10-29T21:02:04.132Z,1.50
2022-10-29T21:04:30.850Z,1.48
2022-10-29T21:06:57.458Z,1.92
2022-10-29T21:09:24.110Z,1.65
2022-10-29T21:11:50.694Z,1.50
2022-10-29T21:14:17.228Z,1.70
2022-10-29T21:16:43.841Z,1.35
2022-10-29T21:19:10.432Z,2.10
2022-10-29T21:21:37.892Z,1.48
2022-10-29T21:24:04.581Z,1.67
2022-10-29T21:26:31.181Z,1.35
2022-10-29T21:28:57.849Z,2.60
2022-10-29T21:31:24.838Z,1.77
2022-10-29T21:33:55.111Z,1.67
2022-10-29T21:36:22.755Z,2.22
2022-10-29T21:38:49.650Z,1.50
2022-10-29T21:41:16.618Z,1.52
2022-10-29T21:43:43.197Z,1.55
2022-10-29T21:46:09.842Z,2.03
2022-10-29T21:48:36.524Z,1.95
2022-10-29T21:51:08.130Z,1.52
2022-10-29T21:53:34.887Z,1.65
2022-10-29T21:56:04.489Z,2.55
2022-10-29T21:58:31.393Z,2.70
2022-10-29T22:01:12.640Z,2.10
2022-10-29T22:03:41.246Z,1.97
2022-10-29T22:06:19.227Z,2.70
2022-10-29T22:08:46.840Z,1.40
2022-10-29T22:11:14.943Z,1.85
2022-10-29T22:13:41.620Z,1.92
2022-10-29T22:16:09.143Z,2.00
2022-10-29T22:18:36.436Z,1.85
2022-10-29T22:21:10.382Z,1.27
2022-10-29T22:23:41.174Z,2.00
2022-10-29T22:26:09.641Z,1.60
2022-10-29T22:28:36.241Z,2.13
2022-10-29T22:31:04.492Z,2.00
2022-10-29T22:33:31.554Z,1.88
2022-10-29T22:36:08.747Z,1.50
2022-10-29T22:38:35.387Z,1.30
2022-10-29T22:41:09.962Z,1.30
2022-10-29T22:43:37.072Z,1.52
2022-10-29T22:46:05.396Z,2.78
2022-10-29T22:48:32.256Z,1.55
2022-10-29T22:51:11.437Z,1.50
2022-10-29T22:53:38.009Z,2.05
2022-10-29T22:56:04.872Z,1.38
2022-10-29T22:58:31.496Z,1.50
2022-10-29T23:01:09.944Z,2.42
2022-10-29T23:03:38.793Z,1.50
2022-10-29T23:06:07.471Z,1.58
2022-10-29T23:08:34.775Z,1.40
2022-10-29T23:11:21.770Z,1.88
2022-10-29T23:13:58.898Z,1.65
2022-10-29T23:16:28.452Z,1.35
2022-10-29T23:18:59.508Z,1.30
2022-10-29T23:21:26.560Z,1.95
2022-10-29T23:23:53.578Z,3.17
2022-10-29T23:26:21.499Z,2.60
2022-10-29T23:28:49.088Z,2.95
2022-10-29T23:31:24.337Z,2.15
2022-10-29T23:33:54.074Z,1.42
2022-10-29T23:36:23.363Z,1.85
2022-10-29T23:38:55.876Z,2.55
2022-10-29T23:41:22.549Z,2.33
2022-10-29T23:43:49.146Z,1.33
2022-10-29T23:46:15.793Z,1.52
2022-10-29T23:48:42.401Z,1.42
2022-10-29T23:51:09.031Z,3.95
2022-10-29T23:53:35.745Z,1.65
2022-10-29T23:56:02.338Z,3.47
2022-10-29T23:58:28.941Z,1.75
